N750GK KCRQ-KSFO
Flight info
| Callsign | N750GK |
|---|---|
| Flight time | 0h 56m |
| Altitude | 34000 |
| Route | PADRZ2 IKAYE RIZIN SPLNT STOKD SERFR SERFR4 |
| Aircraft | C750/M-VGDW/C |
Departure
| Time | 2026-04-20 04:28 |
|---|---|
| Airport | McClellan-Palomar Airport (KCRQ) |
Arrival
| Time | 2026-04-20 05:24 |
|---|---|
| Airport | San Francisco International Airport (KSFO) |
| Time | Latitude | Longitude | Altitude | Speed | Heading |
|---|---|---|---|---|---|
| 2026-04-20 04:18 | 33.12713 | -117.27898 | 328 ft | 0 kts | 261° |
| 2026-04-20 04:23 | 33.12712 | -117.27905 | 328 ft | 4 kts | 262° |
| 2026-04-20 04:24 | 33.12723 | -117.27920 | 328 ft | 2 kts | 352° |
| 2026-04-20 04:24 | 33.12756 | -117.27893 | 327 ft | 8 kts | 59° |
| 2026-04-20 04:24 | 33.12771 | -117.27833 | 326 ft | 7 kts | 79° |
| 2026-04-20 04:24 | 33.12782 | -117.27762 | 326 ft | 9 kts | 79° |
| 2026-04-20 04:25 | 33.12794 | -117.27690 | 328 ft | 9 kts | 79° |
| 2026-04-20 04:25 | 33.12805 | -117.27617 | 328 ft | 9 kts | 80° |
| 2026-04-20 04:25 | 33.12816 | -117.27547 | 328 ft | 8 kts | 79° |
| 2026-04-20 04:25 | 33.12828 | -117.27481 | 328 ft | 8 kts | 78° |
| 2026-04-20 04:26 | 33.12839 | -117.27409 | 326 ft | 10 kts | 79° |
| 2026-04-20 04:26 | 33.12851 | -117.27333 | 328 ft | 9 kts | 79° |
| 2026-04-20 04:26 | 33.12859 | -117.27302 | 329 ft | 0 kts | 62° |
| 2026-04-20 04:26 | 33.12865 | -117.27292 | 329 ft | 4 kts | 52° |
| 2026-04-20 04:27 | 33.12885 | -117.27267 | 327 ft | 5 kts | 41° |
| 2026-04-20 04:27 | 33.12927 | -117.27259 | 329 ft | 8 kts | 331° |
| 2026-04-20 04:27 | 33.12936 | -117.27319 | 330 ft | 7 kts | 259° |
| 2026-04-20 04:27 | 33.12882 | -117.27641 | 325 ft | 100 kts | 259° |
| 2026-04-20 04:28 | 33.12701 | -117.28744 | 535 ft | 153 kts | 258° |
| 2026-04-20 04:28 | 33.12456 | -117.30057 | 1100 ft | 174 kts | 255° |
| 2026-04-20 04:28 | 33.12067 | -117.31567 | 1502 ft | 202 kts | 253° |
| 2026-04-20 04:28 | 33.11702 | -117.33171 | 2259 ft | 203 kts | 255° |
| 2026-04-20 04:29 | 33.11350 | -117.34899 | 2947 ft | 230 kts | 255° |
| 2026-04-20 04:29 | 33.10939 | -117.36902 | 2995 ft | 265 kts | 255° |
| 2026-04-20 04:29 | 33.10491 | -117.39067 | 4089 ft | 262 kts | 255° |
| 2026-04-20 04:29 | 33.10055 | -117.41166 | 5378 ft | 264 kts | 253° |
| 2026-04-20 04:30 | 33.09605 | -117.43321 | 6343 ft | 264 kts | 253° |
| 2026-04-20 04:30 | 33.09166 | -117.45434 | 6929 ft | 273 kts | 253° |
| 2026-04-20 04:30 | 33.08705 | -117.47647 | 6960 ft | 276 kts | 254° |
| 2026-04-20 04:30 | 33.08404 | -117.49998 | 7513 ft | 288 kts | 263° |
| 2026-04-20 04:31 | 33.08283 | -117.52323 | 9008 ft | 280 kts | 264° |
| 2026-04-20 04:31 | 33.08086 | -117.54676 | 9992 ft | 288 kts | 261° |
| 2026-04-20 04:31 | 33.07823 | -117.57111 | 10550 ft | 308 kts | 261° |
| 2026-04-20 04:31 | 33.07562 | -117.59757 | 10802 ft | 335 kts | 262° |
| 2026-04-20 04:32 | 33.07308 | -117.62638 | 11112 ft | 356 kts | 262° |
| 2026-04-20 04:32 | 33.07044 | -117.65576 | 12008 ft | 356 kts | 262° |
| 2026-04-20 04:32 | 33.06772 | -117.68492 | 12769 ft | 361 kts | 262° |
| 2026-04-20 04:32 | 33.06983 | -117.71512 | 13406 ft | 373 kts | 283° |
| 2026-04-20 04:33 | 33.08084 | -117.74326 | 14160 ft | 380 kts | 302° |
| 2026-04-20 04:33 | 33.09929 | -117.76614 | 14858 ft | 384 kts | 317° |
| 2026-04-20 04:33 | 33.11975 | -117.78684 | 15577 ft | 387 kts | 319° |
| 2026-04-20 04:33 | 33.14059 | -117.80744 | 16300 ft | 390 kts | 319° |
| 2026-04-20 04:34 | 33.16138 | -117.82859 | 17045 ft | 394 kts | 317° |
| 2026-04-20 04:34 | 33.18217 | -117.85009 | 17804 ft | 397 kts | 317° |
| 2026-04-20 04:34 | 33.20245 | -117.87204 | 18477 ft | 401 kts | 313° |
| 2026-04-20 04:34 | 33.22221 | -117.89569 | 19184 ft | 403 kts | 313° |
| 2026-04-20 04:35 | 33.24210 | -117.91944 | 19955 ft | 405 kts | 313° |
| 2026-04-20 04:35 | 33.26213 | -117.94324 | 20721 ft | 407 kts | 314° |
| 2026-04-20 04:35 | 33.28228 | -117.96724 | 21484 ft | 410 kts | 314° |
| 2026-04-20 04:35 | 33.30250 | -117.99142 | 22249 ft | 413 kts | 314° |
| 2026-04-20 04:36 | 33.34340 | -118.04030 | 23715 ft | 418 kts | 314° |
| 2026-04-20 04:36 | 33.36410 | -118.06506 | 24350 ft | 420 kts | 314° |
| 2026-04-20 04:36 | 33.38459 | -118.08959 | 25005 ft | 422 kts | 314° |
| 2026-04-20 04:37 | 33.40540 | -118.11454 | 25610 ft | 424 kts | 314° |
| 2026-04-20 04:37 | 33.42637 | -118.13968 | 26251 ft | 427 kts | 314° |
| 2026-04-20 04:37 | 33.44740 | -118.16491 | 26867 ft | 429 kts | 314° |
| 2026-04-20 04:37 | 33.46857 | -118.19033 | 27472 ft | 431 kts | 314° |
| 2026-04-20 04:38 | 33.48960 | -118.21561 | 28072 ft | 434 kts | 314° |
| 2026-04-20 04:38 | 33.51096 | -118.24131 | 28671 ft | 436 kts | 314° |
| 2026-04-20 04:38 | 33.53252 | -118.26724 | 29254 ft | 439 kts | 314° |
| 2026-04-20 04:38 | 33.55413 | -118.29327 | 29829 ft | 442 kts | 314° |
| 2026-04-20 04:39 | 33.57591 | -118.31953 | 30321 ft | 445 kts | 314° |
| 2026-04-20 04:39 | 33.59783 | -118.34596 | 30794 ft | 448 kts | 314° |
| 2026-04-20 04:39 | 33.61985 | -118.37254 | 31383 ft | 447 kts | 313° |
| 2026-04-20 04:39 | 33.64162 | -118.39885 | 32123 ft | 443 kts | 313° |
| 2026-04-20 04:40 | 33.66299 | -118.42468 | 32835 ft | 440 kts | 314° |
| 2026-04-20 04:40 | 33.68447 | -118.45066 | 33560 ft | 437 kts | 314° |
| 2026-04-20 04:40 | 33.70587 | -118.47657 | 33997 ft | 441 kts | 313° |
| 2026-04-20 04:40 | 33.72778 | -118.50316 | 33984 ft | 454 kts | 314° |
| 2026-04-20 04:41 | 33.75032 | -118.53048 | 33986 ft | 466 kts | 314° |
| 2026-04-20 04:41 | 33.77338 | -118.55846 | 34000 ft | 477 kts | 314° |
| 2026-04-20 04:41 | 33.79697 | -118.58712 | 34001 ft | 487 kts | 314° |
| 2026-04-20 04:42 | 33.84482 | -118.64530 | 34006 ft | 493 kts | 314° |
| 2026-04-20 04:42 | 33.89318 | -118.70422 | 34008 ft | 495 kts | 313° |
| 2026-04-20 04:43 | 33.94158 | -118.76328 | 34003 ft | 495 kts | 313° |
| 2026-04-20 04:43 | 33.98997 | -118.82243 | 34005 ft | 495 kts | 313° |
| 2026-04-20 04:44 | 34.03811 | -118.88139 | 33992 ft | 495 kts | 313° |
| 2026-04-20 04:44 | 34.08643 | -118.94065 | 34000 ft | 495 kts | 313° |
| 2026-04-20 04:45 | 34.13435 | -119.00051 | 33986 ft | 495 kts | 309° |
| 2026-04-20 04:45 | 34.17323 | -119.06881 | 33996 ft | 493 kts | 301° |
| 2026-04-20 04:46 | 34.20963 | -119.13917 | 34002 ft | 494 kts | 301° |
| 2026-04-20 04:46 | 34.24568 | -119.20930 | 33996 ft | 493 kts | 301° |
| 2026-04-20 04:47 | 34.28197 | -119.27994 | 33994 ft | 494 kts | 301° |
| 2026-04-20 04:47 | 34.31820 | -119.35059 | 33994 ft | 494 kts | 300° |
| 2026-04-20 04:48 | 34.35434 | -119.42127 | 33995 ft | 494 kts | 300° |
| 2026-04-20 04:48 | 34.39049 | -119.49202 | 33994 ft | 494 kts | 300° |
| 2026-04-20 04:49 | 34.43214 | -119.55838 | 33975 ft | 499 kts | 311° |
| 2026-04-20 04:49 | 34.48098 | -119.61815 | 33988 ft | 499 kts | 312° |
| 2026-04-20 04:50 | 34.52967 | -119.67838 | 33990 ft | 499 kts | 312° |
| 2026-04-20 04:50 | 34.57847 | -119.73834 | 33987 ft | 499 kts | 312° |
| 2026-04-20 04:51 | 34.62679 | -119.79817 | 33986 ft | 499 kts | 312° |
| 2026-04-20 04:51 | 34.67557 | -119.85845 | 33992 ft | 499 kts | 312° |
| 2026-04-20 04:52 | 34.72423 | -119.91884 | 33989 ft | 499 kts | 312° |
| 2026-04-20 04:52 | 34.77265 | -119.97893 | 34001 ft | 500 kts | 311° |
| 2026-04-20 04:53 | 34.82136 | -120.03955 | 34011 ft | 500 kts | 311° |
| 2026-04-20 04:53 | 34.86994 | -120.10010 | 34012 ft | 500 kts | 311° |
| 2026-04-20 04:54 | 34.91852 | -120.16075 | 34019 ft | 500 kts | 311° |
| 2026-04-20 04:54 | 34.96673 | -120.22107 | 34028 ft | 499 kts | 311° |
| 2026-04-20 04:55 | 35.01527 | -120.28190 | 34026 ft | 500 kts | 311° |
| 2026-04-20 04:55 | 35.06374 | -120.34274 | 34032 ft | 499 kts | 311° |
| 2026-04-20 04:56 | 35.11373 | -120.40197 | 34033 ft | 502 kts | 314° |
| 2026-04-20 04:56 | 35.16505 | -120.45933 | 34013 ft | 502 kts | 314° |
| 2026-04-20 04:57 | 35.21652 | -120.51719 | 34006 ft | 502 kts | 314° |
| 2026-04-20 04:57 | 35.26811 | -120.57502 | 34002 ft | 502 kts | 314° |
| 2026-04-20 04:58 | 35.31948 | -120.63295 | 34000 ft | 502 kts | 314° |
| 2026-04-20 04:58 | 35.37100 | -120.69097 | 34006 ft | 502 kts | 314° |
| 2026-04-20 04:59 | 35.42209 | -120.74874 | 34012 ft | 503 kts | 314° |
| 2026-04-20 04:59 | 35.47349 | -120.80686 | 34030 ft | 503 kts | 314° |
| 2026-04-20 05:00 | 35.52895 | -120.86001 | 34018 ft | 506 kts | 319° |
| 2026-04-20 05:00 | 35.58493 | -120.91246 | 34036 ft | 507 kts | 319° |
| 2026-04-20 05:01 | 35.64141 | -120.96466 | 34008 ft | 507 kts | 319° |
| 2026-04-20 05:01 | 35.69691 | -121.01646 | 34019 ft | 504 kts | 317° |
| 2026-04-20 05:02 | 35.75281 | -121.06858 | 34026 ft | 504 kts | 318° |
| 2026-04-20 05:02 | 35.80872 | -121.12080 | 34023 ft | 504 kts | 317° |
| 2026-04-20 05:03 | 35.86460 | -121.17315 | 34019 ft | 504 kts | 317° |
| 2026-04-20 05:03 | 35.92047 | -121.22552 | 34022 ft | 506 kts | 317° |
| 2026-04-20 05:04 | 35.97622 | -121.27794 | 34014 ft | 507 kts | 317° |
| 2026-04-20 05:04 | 36.03263 | -121.33098 | 34009 ft | 506 kts | 317° |
| 2026-04-20 05:05 | 36.08859 | -121.38041 | 33303 ft | 476 kts | 322° |
| 2026-04-20 05:05 | 36.11612 | -121.40138 | 32692 ft | 455 kts | 321° |
| 2026-04-20 05:05 | 36.14272 | -121.42247 | 32100 ft | 456 kts | 321° |
| 2026-04-20 05:05 | 36.16948 | -121.44384 | 31487 ft | 459 kts | 321° |
| 2026-04-20 05:06 | 36.19663 | -121.46489 | 30893 ft | 462 kts | 322° |
| 2026-04-20 05:06 | 36.22414 | -121.48610 | 30286 ft | 466 kts | 322° |
| 2026-04-20 05:06 | 36.25143 | -121.50740 | 29628 ft | 461 kts | 322° |
| 2026-04-20 05:06 | 36.27840 | -121.52870 | 29021 ft | 459 kts | 321° |
| 2026-04-20 05:07 | 36.30532 | -121.54987 | 28411 ft | 457 kts | 321° |
| 2026-04-20 05:07 | 36.33228 | -121.57091 | 27809 ft | 455 kts | 322° |
| 2026-04-20 05:07 | 36.35904 | -121.59185 | 27206 ft | 452 kts | 322° |
| 2026-04-20 05:07 | 36.38555 | -121.61273 | 26614 ft | 450 kts | 322° |
| 2026-04-20 05:08 | 36.41193 | -121.63352 | 26028 ft | 449 kts | 322° |
| 2026-04-20 05:08 | 36.43830 | -121.65425 | 25432 ft | 448 kts | 322° |
| 2026-04-20 05:08 | 36.46406 | -121.67442 | 24861 ft | 426 kts | 322° |
| 2026-04-20 05:08 | 36.48883 | -121.69390 | 24307 ft | 417 kts | 321° |
| 2026-04-20 05:09 | 36.51320 | -121.71326 | 23755 ft | 414 kts | 321° |
| 2026-04-20 05:09 | 36.53752 | -121.73256 | 23163 ft | 414 kts | 322° |
| 2026-04-20 05:09 | 36.55362 | -121.74524 | 22801 ft | 412 kts | 322° |
| 2026-04-20 05:09 | 36.58564 | -121.77049 | 22083 ft | 408 kts | 322° |
| 2026-04-20 05:10 | 36.60959 | -121.78947 | 21551 ft | 408 kts | 322° |
| 2026-04-20 05:10 | 36.62535 | -121.80199 | 21240 ft | 406 kts | 322° |
| 2026-04-20 05:10 | 36.64921 | -121.82092 | 20684 ft | 404 kts | 322° |
| 2026-04-20 05:10 | 36.67290 | -121.83968 | 20159 ft | 402 kts | 322° |
| 2026-04-20 05:11 | 36.69641 | -121.85833 | 19632 ft | 399 kts | 322° |
| 2026-04-20 05:11 | 36.71978 | -121.87691 | 19110 ft | 396 kts | 322° |
| 2026-04-20 05:11 | 36.74409 | -121.89327 | 18556 ft | 401 kts | 334° |
| 2026-04-20 05:11 | 36.77100 | -121.90263 | 18028 ft | 403 kts | 344° |
| 2026-04-20 05:12 | 36.79835 | -121.91003 | 17487 ft | 400 kts | 344° |
| 2026-04-20 05:12 | 36.82540 | -121.91748 | 16965 ft | 397 kts | 344° |
| 2026-04-20 05:12 | 36.85190 | -121.92499 | 16443 ft | 394 kts | 344° |
| 2026-04-20 05:12 | 36.87851 | -121.93249 | 15924 ft | 391 kts | 344° |
| 2026-04-20 05:13 | 36.90496 | -121.93984 | 15407 ft | 387 kts | 345° |
| 2026-04-20 05:13 | 36.93127 | -121.94717 | 14895 ft | 385 kts | 345° |
| 2026-04-20 05:13 | 36.95718 | -121.95506 | 14379 ft | 381 kts | 340° |
| 2026-04-20 05:13 | 36.98233 | -121.96510 | 13890 ft | 379 kts | 340° |
| 2026-04-20 05:14 | 37.00746 | -121.97485 | 13352 ft | 375 kts | 340° |
| 2026-04-20 05:14 | 37.03229 | -121.98434 | 12853 ft | 371 kts | 340° |
| 2026-04-20 05:14 | 37.05684 | -121.99391 | 12364 ft | 368 kts | 340° |
| 2026-04-20 05:14 | 37.08109 | -122.00347 | 11874 ft | 365 kts | 340° |
| 2026-04-20 05:15 | 37.10522 | -122.01291 | 11392 ft | 361 kts | 341° |
| 2026-04-20 05:15 | 37.12913 | -122.02220 | 10923 ft | 358 kts | 341° |
| 2026-04-20 05:15 | 37.15225 | -122.03123 | 10456 ft | 343 kts | 341° |
| 2026-04-20 05:15 | 37.17444 | -122.03987 | 10002 ft | 326 kts | 341° |
| 2026-04-20 05:16 | 37.19573 | -122.04827 | 9557 ft | 318 kts | 341° |
| 2026-04-20 05:16 | 37.21673 | -122.05658 | 9129 ft | 314 kts | 341° |
| 2026-04-20 05:16 | 37.23746 | -122.06466 | 8719 ft | 310 kts | 341° |
| 2026-04-20 05:16 | 37.25805 | -122.07270 | 8312 ft | 309 kts | 341° |
| 2026-04-20 05:17 | 37.27826 | -122.08056 | 7818 ft | 299 kts | 341° |
| 2026-04-20 05:17 | 37.29803 | -122.08837 | 7411 ft | 296 kts | 340° |
| 2026-04-20 05:17 | 37.31755 | -122.09617 | 7052 ft | 293 kts | 340° |
| 2026-04-20 05:17 | 37.33695 | -122.10386 | 6701 ft | 291 kts | 341° |
| 2026-04-20 05:18 | 37.35611 | -122.11136 | 6342 ft | 292 kts | 341° |
| 2026-04-20 05:18 | 37.37572 | -122.11886 | 5966 ft | 289 kts | 343° |
| 2026-04-20 05:18 | 37.39496 | -122.12487 | 5621 ft | 288 kts | 343° |
| 2026-04-20 05:18 | 37.41415 | -122.13199 | 5267 ft | 287 kts | 341° |
| 2026-04-20 05:19 | 37.43333 | -122.13899 | 4927 ft | 286 kts | 342° |
| 2026-04-20 05:19 | 37.45249 | -122.14542 | 4571 ft | 284 kts | 343° |
| 2026-04-20 05:19 | 37.47151 | -122.15163 | 4226 ft | 281 kts | 343° |
| 2026-04-20 05:19 | 37.49035 | -122.15778 | 3887 ft | 278 kts | 343° |
| 2026-04-20 05:20 | 37.50903 | -122.16396 | 3555 ft | 276 kts | 343° |
| 2026-04-20 05:20 | 37.52719 | -122.17108 | 3200 ft | 271 kts | 332° |
| 2026-04-20 05:20 | 37.54095 | -122.18584 | 2844 ft | 258 kts | 303° |
| 2026-04-20 05:20 | 37.54955 | -122.20451 | 2573 ft | 227 kts | 294° |
| 2026-04-20 05:21 | 37.55631 | -122.22040 | 2310 ft | 186 kts | 293° |
| 2026-04-20 05:21 | 37.56216 | -122.23455 | 2114 ft | 179 kts | 292° |
| 2026-04-20 05:21 | 37.56793 | -122.24842 | 1977 ft | 177 kts | 293° |
| 2026-04-20 05:21 | 37.57363 | -122.26191 | 1690 ft | 167 kts | 295° |
| 2026-04-20 05:22 | 37.57896 | -122.27415 | 1483 ft | 151 kts | 295° |
| 2026-04-20 05:22 | 37.58382 | -122.28558 | 1244 ft | 146 kts | 295° |
| 2026-04-20 05:22 | 37.58839 | -122.29671 | 1056 ft | 139 kts | 295° |
| 2026-04-20 05:22 | 37.59279 | -122.30738 | 918 ft | 136 kts | 295° |
| 2026-04-20 05:23 | 37.59721 | -122.31800 | 726 ft | 137 kts | 295° |
| 2026-04-20 05:23 | 37.60159 | -122.32845 | 547 ft | 133 kts | 295° |
| 2026-04-20 05:23 | 37.60585 | -122.33866 | 374 ft | 129 kts | 294° |
| 2026-04-20 05:23 | 37.60999 | -122.34852 | 208 ft | 125 kts | 293° |
| 2026-04-20 05:24 | 37.61389 | -122.35789 | 60 ft | 119 kts | 294° |
| 2026-04-20 05:24 | 37.61756 | -122.36661 | 18 ft | 102 kts | 292° |
| 2026-04-20 05:24 | 37.61999 | -122.37256 | 13 ft | 47 kts | 298° |
| 2026-04-20 05:24 | 37.62134 | -122.37582 | 15 ft | 36 kts | 297° |
| 2026-04-20 05:25 | 37.62251 | -122.37858 | 18 ft | 35 kts | 299° |
| 2026-04-20 05:25 | 37.62338 | -122.38061 | 18 ft | 17 kts | 300° |
| 2026-04-20 05:25 | 37.62440 | -122.38134 | 16 ft | 17 kts | 354° |
| 2026-04-20 05:25 | 37.62528 | -122.38145 | 15 ft | 11 kts | 306° |
| 2026-04-20 05:26 | 37.62567 | -122.38236 | 13 ft | 13 kts | 297° |
| 2026-04-20 05:26 | 37.62611 | -122.38343 | 12 ft | 14 kts | 297° |
| 2026-04-20 05:26 | 37.62661 | -122.38451 | 14 ft | 10 kts | 319° |
| 2026-04-20 05:26 | 37.62720 | -122.38437 | 13 ft | 8 kts | 38° |
| 2026-04-20 05:27 | 37.62763 | -122.38413 | 13 ft | 5 kts | 335° |
| 2026-04-20 05:27 | 37.62777 | -122.38443 | 13 ft | 1 kts | 298° |
| 2026-04-20 05:27 | 37.62777 | -122.38444 | 13 ft | 0 kts | 298° |